sensor_id;sensor_type;location;lat;lon;timestamp;P1;durP1;ratioP1;P2;durP2;ratioP2
7255;SDS011;3669;49.200;9.242;2024-03-22T00:01:58;5.38;;;4.88;;
7255;SDS011;3669;49.200;9.242;2024-03-22T00:04:25;5.65;;;5.25;;
7255;SDS011;3669;49.200;9.242;2024-03-22T00:06:52;5.82;;;5.32;;
7255;SDS011;3669;49.200;9.242;2024-03-22T00:09:20;5.93;;;5.40;;
7255;SDS011;3669;49.200;9.242;2024-03-22T00:11:47;4.95;;;4.45;;
7255;SDS011;3669;49.200;9.242;2024-03-22T00:14:14;5.72;;;5.22;;
7255;SDS011;3669;49.200;9.242;2024-03-22T00:16:42;5.97;;;5.47;;
7255;SDS011;3669;49.200;9.242;2024-03-22T00:19:09;5.97;;;5.47;;
7255;SDS011;3669;49.200;9.242;2024-03-22T00:21:36;5.05;;;4.65;;
7255;SDS011;3669;49.200;9.242;2024-03-22T00:24:03;5.65;;;5.15;;
7255;SDS011;3669;49.200;9.242;2024-03-22T00:26:30;6.38;;;5.82;;
7255;SDS011;3669;49.200;9.242;2024-03-22T00:28:57;6.00;;;5.50;;
7255;SDS011;3669;49.200;9.242;2024-03-22T00:33:41;25.30;;;23.92;;
7255;SDS011;3669;49.200;9.242;2024-03-22T00:36:09;22.25;;;21.05;;
7255;SDS011;3669;49.200;9.242;2024-03-22T00:38:36;24.58;;;23.15;;
7255;SDS011;3669;49.200;9.242;2024-03-22T00:41:03;17.98;;;16.90;;
7255;SDS011;3669;49.200;9.242;2024-03-22T00:43:30;10.57;;;9.90;;
7255;SDS011;3669;49.200;9.242;2024-03-22T00:45:57;6.45;;;5.90;;
7255;SDS011;3669;49.200;9.242;2024-03-22T00:48:24;6.40;;;5.88;;
7255;SDS011;3669;49.200;9.242;2024-03-22T00:50:51;5.47;;;4.97;;
7255;SDS011;3669;49.200;9.242;2024-03-22T00:53:18;6.68;;;6.07;;
7255;SDS011;3669;49.200;9.242;2024-03-22T00:55:45;5.90;;;5.40;;
7255;SDS011;3669;49.200;9.242;2024-03-22T00:58:19;5.80;;;5.25;;
7255;SDS011;3669;49.200;9.242;2024-03-22T01:00:46;6.32;;;5.50;;
7255;SDS011;3669;49.200;9.242;2024-03-22T01:03:13;5.72;;;5.22;;
7255;SDS011;3669;49.200;9.242;2024-03-22T01:05:41;5.85;;;5.38;;
7255;SDS011;3669;49.200;9.242;2024-03-22T01:08:08;6.13;;;5.50;;
7255;SDS011;3669;49.200;9.242;2024-03-22T01:10:36;5.88;;;5.38;;
7255;SDS011;3669;49.200;9.242;2024-03-22T01:13:03;5.70;;;5.15;;
7255;SDS011;3669;49.200;9.242;2024-03-22T01:15:30;5.18;;;4.68;;
7255;SDS011;3669;49.200;9.242;2024-03-22T01:17:57;6.05;;;5.55;;
7255;SDS011;3669;49.200;9.242;2024-03-22T01:20:24;6.05;;;5.40;;
7255;SDS011;3669;49.200;9.242;2024-03-22T01:22:51;5.63;;;5.13;;
7255;SDS011;3669;49.200;9.242;2024-03-22T01:25:18;5.68;;;5.22;;
7255;SDS011;3669;49.200;9.242;2024-03-22T01:27:46;5.90;;;5.40;;
7255;SDS011;3669;49.200;9.242;2024-03-22T01:30:13;5.88;;;5.38;;
7255;SDS011;3669;49.200;9.242;2024-03-22T01:32:40;6.07;;;5.10;;
7255;SDS011;3669;49.200;9.242;2024-03-22T01:35:07;5.85;;;5.35;;
7255;SDS011;3669;49.200;9.242;2024-03-22T01:37:34;5.35;;;4.95;;
7255;SDS011;3669;49.200;9.242;2024-03-22T01:40:02;5.53;;;5.03;;
7255;SDS011;3669;49.200;9.242;2024-03-22T01:42:33;6.20;;;5.70;;
7255;SDS011;3669;49.200;9.242;2024-03-22T01:45:00;5.43;;;5.03;;
7255;SDS011;3669;49.200;9.242;2024-03-22T01:47:29;6.43;;;5.82;;
7255;SDS011;3669;49.200;9.242;2024-03-22T01:49:56;5.68;;;5.18;;
7255;SDS011;3669;49.200;9.242;2024-03-22T01:52:23;5.70;;;5.20;;
7255;SDS011;3669;49.200;9.242;2024-03-22T01:54:50;6.80;;;5.85;;
7255;SDS011;3669;49.200;9.242;2024-03-22T01:57:17;6.03;;;5.53;;
7255;SDS011;3669;49.200;9.242;2024-03-22T01:59:45;6.20;;;5.60;;
7255;SDS011;3669;49.200;9.242;2024-03-22T02:02:14;5.57;;;5.18;;
7255;SDS011;3669;49.200;9.242;2024-03-22T02:04:41;5.97;;;5.57;;
7255;SDS011;3669;49.200;9.242;2024-03-22T02:07:08;5.90;;;5.38;;
7255;SDS011;3669;49.200;9.242;2024-03-22T02:09:36;6.18;;;5.63;;
7255;SDS011;3669;49.200;9.242;2024-03-22T02:12:03;5.75;;;5.25;;
7255;SDS011;3669;49.200;9.242;2024-03-22T02:14:30;5.82;;;5.22;;
7255;SDS011;3669;49.200;9.242;2024-03-22T02:16:57;7.65;;;5.60;;
7255;SDS011;3669;49.200;9.242;2024-03-22T02:19:24;6.03;;;5.43;;
7255;SDS011;3669;49.200;9.242;2024-03-22T02:21:51;6.53;;;5.88;;
7255;SDS011;3669;49.200;9.242;2024-03-22T02:24:19;6.22;;;5.63;;
7255;SDS011;3669;49.200;9.242;2024-03-22T02:26:46;6.63;;;6.03;;
7255;SDS011;3669;49.200;9.242;2024-03-22T02:29:13;6.15;;;5.65;;
7255;SDS011;3669;49.200;9.242;2024-03-22T02:31:40;6.20;;;5.53;;
7255;SDS011;3669;49.200;9.242;2024-03-22T02:34:07;5.88;;;5.28;;
7255;SDS011;3669;49.200;9.242;2024-03-22T02:36:34;6.50;;;5.90;;
7255;SDS011;3669;49.200;9.242;2024-03-22T02:39:01;5.60;;;5.10;;
7255;SDS011;3669;49.200;9.242;2024-03-22T02:41:29;6.57;;;6.00;;
7255;SDS011;3669;49.200;9.242;2024-03-22T02:43:56;5.93;;;5.50;;
7255;SDS011;3669;49.200;9.242;2024-03-22T02:46:23;6.22;;;5.68;;
7255;SDS011;3669;49.200;9.242;2024-03-22T02:48:50;6.22;;;5.70;;
7255;SDS011;3669;49.200;9.242;2024-03-22T02:51:18;6.68;;;6.07;;
7255;SDS011;3669;49.200;9.242;2024-03-22T02:53:45;5.70;;;5.20;;
7255;SDS011;3669;49.200;9.242;2024-03-22T02:56:12;6.57;;;5.97;;
7255;SDS011;3669;49.200;9.242;2024-03-22T02:58:39;11.43;;;10.70;;
7255;SDS011;3669;49.200;9.242;2024-03-22T03:01:06;5.85;;;5.35;;
7255;SDS011;3669;49.200;9.242;2024-03-22T03:03:34;6.45;;;5.95;;
7255;SDS011;3669;49.200;9.242;2024-03-22T03:06:01;5.80;;;5.40;;
7255;SDS011;3669;49.200;9.242;2024-03-22T03:08:28;16.10;;;14.95;;
7255;SDS011;3669;49.200;9.242;2024-03-22T03:10:55;18.42;;;17.38;;
7255;SDS011;3669;49.200;9.242;2024-03-22T03:13:22;29.15;;;27.60;;
7255;SDS011;3669;49.200;9.242;2024-03-22T03:15:49;28.55;;;27.02;;
7255;SDS011;3669;49.200;9.242;2024-03-22T03:18:16;28.00;;;26.52;;
7255;SDS011;3669;49.200;9.242;2024-03-22T03:20:43;22.85;;;21.65;;
7255;SDS011;3669;49.200;9.242;2024-03-22T03:23:10;25.80;;;24.30;;
7255;SDS011;3669;49.200;9.242;2024-03-22T03:25:37;15.10;;;14.13;;
7255;SDS011;3669;49.200;9.242;2024-03-22T03:28:03;12.77;;;11.77;;
7255;SDS011;3669;49.200;9.242;2024-03-22T03:30:33;7.07;;;6.55;;
7255;SDS011;3669;49.200;9.242;2024-03-22T03:33:00;7.70;;;7.05;;
7255;SDS011;3669;49.200;9.242;2024-03-22T03:35:32;6.35;;;5.82;;
7255;SDS011;3669;49.200;9.242;2024-03-22T03:37:59;6.40;;;5.88;;
7255;SDS011;3669;49.200;9.242;2024-03-22T03:40:26;7.15;;;6.05;;
7255;SDS011;3669;49.200;9.242;2024-03-22T03:42:53;6.03;;;5.50;;
7255;SDS011;3669;49.200;9.242;2024-03-22T03:45:20;6.63;;;6.10;;
7255;SDS011;3669;49.200;9.242;2024-03-22T03:47:48;6.80;;;6.20;;
7255;SDS011;3669;49.200;9.242;2024-03-22T03:50:15;6.15;;;5.65;;
7255;SDS011;3669;49.200;9.242;2024-03-22T03:52:43;6.57;;;6.07;;
7255;SDS011;3669;49.200;9.242;2024-03-22T03:55:10;6.05;;;5.55;;
7255;SDS011;3669;49.200;9.242;2024-03-22T03:57:37;6.40;;;5.90;;
7255;SDS011;3669;49.200;9.242;2024-03-22T04:00:04;6.45;;;5.80;;
7255;SDS011;3669;49.200;9.242;2024-03-22T04:02:31;5.75;;;5.25;;
7255;SDS011;3669;49.200;9.242;2024-03-22T04:04:58;6.22;;;5.68;;
7255;SDS011;3669;49.200;9.242;2024-03-22T04:07:25;6.32;;;5.78;;
7255;SDS011;3669;49.200;9.242;2024-03-22T04:09:53;6.97;;;5.97;;
7255;SDS011;3669;49.200;9.242;2024-03-22T04:12:20;6.50;;;6.00;;
7255;SDS011;3669;49.200;9.242;2024-03-22T04:14:47;6.30;;;5.80;;
7255;SDS011;3669;49.200;9.242;2024-03-22T04:17:14;6.30;;;5.70;;
7255;SDS011;3669;49.200;9.242;2024-03-22T04:19:41;6.93;;;6.32;;
7255;SDS011;3669;49.200;9.242;2024-03-22T04:22:08;7.68;;;7.07;;
7255;SDS011;3669;49.200;9.242;2024-03-22T04:24:36;6.78;;;6.28;;
7255;SDS011;3669;49.200;9.242;2024-03-22T04:27:03;6.97;;;6.38;;
7255;SDS011;3669;49.200;9.242;2024-03-22T04:29:30;7.40;;;6.80;;
7255;SDS011;3669;49.200;9.242;2024-03-22T04:31:58;6.93;;;6.22;;
7255;SDS011;3669;49.200;9.242;2024-03-22T04:34:25;7.07;;;6.47;;
7255;SDS011;3669;49.200;9.242;2024-03-22T04:36:53;7.05;;;6.45;;
7255;SDS011;3669;49.200;9.242;2024-03-22T04:39:21;7.60;;;6.90;;
7255;SDS011;3669;49.200;9.242;2024-03-22T04:41:50;7.07;;;6.47;;
7255;SDS011;3669;49.200;9.242;2024-03-22T04:44:17;7.13;;;6.50;;
7255;SDS011;3669;49.200;9.242;2024-03-22T04:46:44;6.80;;;6.30;;
7255;SDS011;3669;49.200;9.242;2024-03-22T04:49:12;6.78;;;6.03;;
7255;SDS011;3669;49.200;9.242;2024-03-22T04:51:39;6.97;;;6.28;;
7255;SDS011;3669;49.200;9.242;2024-03-22T04:54:06;7.03;;;6.43;;
7255;SDS011;3669;49.200;9.242;2024-03-22T04:56:34;7.18;;;6.57;;
7255;SDS011;3669;49.200;9.242;2024-03-22T04:59:01;7.22;;;6.50;;
7255;SDS011;3669;49.200;9.242;2024-03-22T05:01:29;7.40;;;6.75;;
7255;SDS011;3669;49.200;9.242;2024-03-22T05:03:56;6.65;;;5.75;;
7255;SDS011;3669;49.200;9.242;2024-03-22T05:06:23;7.28;;;6.57;;
7255;SDS011;3669;49.200;9.242;2024-03-22T05:08:50;6.70;;;6.13;;
7255;SDS011;3669;49.200;9.242;2024-03-22T05:11:17;7.18;;;6.68;;
7255;SDS011;3669;49.200;9.242;2024-03-22T05:13:44;6.90;;;6.30;;
7255;SDS011;3669;49.200;9.242;2024-03-22T05:16:12;7.43;;;6.68;;
7255;SDS011;3669;49.200;9.242;2024-03-22T05:18:39;6.78;;;6.18;;
7255;SDS011;3669;49.200;9.242;2024-03-22T05:21:06;7.10;;;6.38;;
7255;SDS011;3669;49.200;9.242;2024-03-22T05:23:34;7.18;;;6.47;;
7255;SDS011;3669;49.200;9.242;2024-03-22T05:26:01;6.88;;;6.22;;
7255;SDS011;3669;49.200;9.242;2024-03-22T05:28:30;7.75;;;6.28;;
7255;SDS011;3669;49.200;9.242;2024-03-22T05:30:57;6.45;;;5.95;;
7255;SDS011;3669;49.200;9.242;2024-03-22T05:33:24;7.35;;;6.53;;
7255;SDS011;3669;49.200;9.242;2024-03-22T05:35:51;7.03;;;6.35;;
7255;SDS011;3669;49.200;9.242;2024-03-22T05:38:18;6.55;;;6.00;;
7255;SDS011;3669;49.200;9.242;2024-03-22T05:40:45;6.70;;;6.20;;
7255;SDS011;3669;49.200;9.242;2024-03-22T05:43:13;6.88;;;6.18;;
7255;SDS011;3669;49.200;9.242;2024-03-22T05:45:40;8.82;;;8.13;;
7255;SDS011;3669;49.200;9.242;2024-03-22T05:48:08;18.75;;;17.58;;
7255;SDS011;3669;49.200;9.242;2024-03-22T05:50:35;34.00;;;32.30;;
7255;SDS011;3669;49.200;9.242;2024-03-22T05:53:02;24.15;;;22.77;;
7255;SDS011;3669;49.200;9.242;2024-03-22T05:55:28;24.90;;;23.50;;
7255;SDS011;3669;49.200;9.242;2024-03-22T05:57:58;23.40;;;22.15;;
7255;SDS011;3669;49.200;9.242;2024-03-22T06:00:24;13.00;;;12.15;;
7255;SDS011;3669;49.200;9.242;2024-03-22T06:02:51;6.72;;;6.20;;
7255;SDS011;3669;49.200;9.242;2024-03-22T06:05:18;7.22;;;6.53;;
7255;SDS011;3669;49.200;9.242;2024-03-22T06:07:47;7.55;;;6.80;;
7255;SDS011;3669;49.200;9.242;2024-03-22T06:10:15;7.05;;;6.45;;
7255;SDS011;3669;49.200;9.242;2024-03-22T06:12:42;6.72;;;6.10;;
7255;SDS011;3669;49.200;9.242;2024-03-22T06:15:12;7.57;;;6.70;;
7255;SDS011;3669;49.200;9.242;2024-03-22T06:17:45;7.63;;;6.95;;
7255;SDS011;3669;49.200;9.242;2024-03-22T06:20:13;6.72;;;6.20;;
7255;SDS011;3669;49.200;9.242;2024-03-22T06:22:40;7.32;;;6.70;;
7255;SDS011;3669;49.200;9.242;2024-03-22T06:25:07;7.10;;;6.43;;
7255;SDS011;3669;49.200;9.242;2024-03-22T06:27:35;7.00;;;6.20;;
7255;SDS011;3669;49.200;9.242;2024-03-22T06:30:02;6.82;;;6.25;;
7255;SDS011;3669;49.200;9.242;2024-03-22T06:32:29;6.85;;;6.25;;
7255;SDS011;3669;49.200;9.242;2024-03-22T06:34:56;7.47;;;6.85;;
7255;SDS011;3669;49.200;9.242;2024-03-22T06:37:23;7.53;;;6.82;;
7255;SDS011;3669;49.200;9.242;2024-03-22T06:39:51;7.00;;;6.40;;
7255;SDS011;3669;49.200;9.242;2024-03-22T06:42:18;7.18;;;6.57;;
7255;SDS011;3669;49.200;9.242;2024-03-22T06:44:45;8.00;;;7.20;;
7255;SDS011;3669;49.200;9.242;2024-03-22T06:47:12;7.35;;;6.75;;
7255;SDS011;3669;49.200;9.242;2024-03-22T06:49:39;6.72;;;6.13;;
7255;SDS011;3669;49.200;9.242;2024-03-22T06:52:06;6.97;;;6.35;;
7255;SDS011;3669;49.200;9.242;2024-03-22T06:54:34;7.30;;;6.70;;
7255;SDS011;3669;49.200;9.242;2024-03-22T06:57:01;7.65;;;6.63;;
7255;SDS011;3669;49.200;9.242;2024-03-22T06:59:28;7.47;;;6.88;;
7255;SDS011;3669;49.200;9.242;2024-03-22T07:01:55;7.85;;;7.15;;
7255;SDS011;3669;49.200;9.242;2024-03-22T07:04:22;8.68;;;6.97;;
7255;SDS011;3669;49.200;9.242;2024-03-22T07:06:50;8.27;;;7.47;;
7255;SDS011;3669;49.200;9.242;2024-03-22T07:09:17;7.45;;;6.75;;
7255;SDS011;3669;49.200;9.242;2024-03-22T07:11:44;8.07;;;7.05;;
7255;SDS011;3669;49.200;9.242;2024-03-22T07:14:11;8.20;;;7.47;;
7255;SDS011;3669;49.200;9.242;2024-03-22T07:16:39;8.57;;;6.97;;
7255;SDS011;3669;49.200;9.242;2024-03-22T07:19:06;7.50;;;6.57;;
7255;SDS011;3669;49.200;9.242;2024-03-22T07:21:33;8.25;;;7.40;;
7255;SDS011;3669;49.200;9.242;2024-03-22T07:24:00;7.70;;;6.97;;
7255;SDS011;3669;49.200;9.242;2024-03-22T07:26:27;9.75;;;7.70;;
7255;SDS011;3669;49.200;9.242;2024-03-22T07:28:55;8.77;;;7.88;;
7255;SDS011;3669;49.200;9.242;2024-03-22T07:31:22;8.95;;;8.15;;
7255;SDS011;3669;49.200;9.242;2024-03-22T07:33:49;11.85;;;8.25;;
7255;SDS011;3669;49.200;9.242;2024-03-22T07:36:16;10.75;;;8.32;;
7255;SDS011;3669;49.200;9.242;2024-03-22T07:38:43;9.98;;;8.45;;
7255;SDS011;3669;49.200;9.242;2024-03-22T07:41:11;10.38;;;8.32;;
7255;SDS011;3669;49.200;9.242;2024-03-22T07:43:38;8.15;;;7.45;;
7255;SDS011;3669;49.200;9.242;2024-03-22T07:46:05;10.50;;;8.82;;
7255;SDS011;3669;49.200;9.242;2024-03-22T07:48:33;9.73;;;8.77;;
7255;SDS011;3669;49.200;9.242;2024-03-22T07:51:00;11.52;;;8.57;;
7255;SDS011;3669;49.200;9.242;2024-03-22T07:53:28;10.43;;;8.65;;
7255;SDS011;3669;49.200;9.242;2024-03-22T07:55:55;11.75;;;8.93;;
7255;SDS011;3669;49.200;9.242;2024-03-22T07:58:22;9.82;;;8.80;;
7255;SDS011;3669;49.200;9.242;2024-03-22T08:00:50;9.98;;;8.68;;
7255;SDS011;3669;49.200;9.242;2024-03-22T08:03:17;9.77;;;8.77;;
7255;SDS011;3669;49.200;9.242;2024-03-22T08:05:44;10.18;;;8.23;;
7255;SDS011;3669;49.200;9.242;2024-03-22T08:08:11;10.27;;;9.27;;
7255;SDS011;3669;49.200;9.242;2024-03-22T08:10:38;10.52;;;9.45;;
7255;SDS011;3669;49.200;9.242;2024-03-22T08:13:05;18.52;;;17.15;;
7255;SDS011;3669;49.200;9.242;2024-03-22T08:15:33;30.13;;;28.15;;
7255;SDS011;3669;49.200;9.242;2024-03-22T08:18:01;20.67;;;18.90;;
7255;SDS011;3669;49.200;9.242;2024-03-22T08:20:28;47.88;;;44.90;;
7255;SDS011;3669;49.200;9.242;2024-03-22T08:22:58;24.83;;;23.08;;
7255;SDS011;3669;49.200;9.242;2024-03-22T08:25:25;33.35;;;30.95;;
7255;SDS011;3669;49.200;9.242;2024-03-22T08:27:53;17.58;;;16.42;;
7255;SDS011;3669;49.200;9.242;2024-03-22T08:30:21;16.23;;;14.90;;
7255;SDS011;3669;49.200;9.242;2024-03-22T08:32:47;11.02;;;9.85;;
7255;SDS011;3669;49.200;9.242;2024-03-22T08:35:15;10.38;;;8.25;;
7255;SDS011;3669;49.200;9.242;2024-03-22T08:37:42;11.60;;;9.88;;
7255;SDS011;3669;49.200;9.242;2024-03-22T08:40:09;10.52;;;8.75;;
7255;SDS011;3669;49.200;9.242;2024-03-22T08:42:36;10.10;;;9.13;;
7255;SDS011;3669;49.200;9.242;2024-03-22T08:45:04;10.23;;;9.20;;
7255;SDS011;3669;49.200;9.242;2024-03-22T08:47:31;10.90;;;9.75;;
7255;SDS011;3669;49.200;9.242;2024-03-22T08:50:02;11.68;;;9.20;;
7255;SDS011;3669;49.200;9.242;2024-03-22T08:52:29;10.65;;;9.55;;
7255;SDS011;3669;49.200;9.242;2024-03-22T08:54:58;12.07;;;8.95;;
7255;SDS011;3669;49.200;9.242;2024-03-22T08:57:25;11.60;;;10.23;;
7255;SDS011;3669;49.200;9.242;2024-03-22T08:59:52;11.27;;;9.77;;
7255;SDS011;3669;49.200;9.242;2024-03-22T09:02:19;11.82;;;9.68;;
7255;SDS011;3669;49.200;9.242;2024-03-22T09:04:47;10.18;;;9.18;;
7255;SDS011;3669;49.200;9.242;2024-03-22T09:07:14;10.38;;;9.38;;
7255;SDS011;3669;49.200;9.242;2024-03-22T09:09:42;11.95;;;9.13;;
7255;SDS011;3669;49.200;9.242;2024-03-22T09:12:09;10.77;;;9.32;;
7255;SDS011;3669;49.200;9.242;2024-03-22T09:14:36;9.88;;;8.88;;
7255;SDS011;3669;49.200;9.242;2024-03-22T09:17:03;10.45;;;8.60;;
7255;SDS011;3669;49.200;9.242;2024-03-22T09:19:30;9.95;;;8.82;;
7255;SDS011;3669;49.200;9.242;2024-03-22T09:21:58;10.13;;;8.55;;
7255;SDS011;3669;49.200;9.242;2024-03-22T09:24:25;11.15;;;9.25;;
7255;SDS011;3669;49.200;9.242;2024-03-22T09:26:52;9.77;;;8.38;;
7255;SDS011;3669;49.200;9.242;2024-03-22T09:29:19;9.70;;;8.73;;
7255;SDS011;3669;49.200;9.242;2024-03-22T09:31:46;20.70;;;18.95;;
7255;SDS011;3669;49.200;9.242;2024-03-22T09:34:16;9.63;;;8.68;;
7255;SDS011;3669;49.200;9.242;2024-03-22T09:36:44;10.90;;;8.73;;
7255;SDS011;3669;49.200;9.242;2024-03-22T09:39:11;11.60;;;8.45;;
7255;SDS011;3669;49.200;9.242;2024-03-22T09:41:42;9.65;;;8.77;;
7255;SDS011;3669;49.200;9.242;2024-03-22T09:44:13;9.77;;;8.73;;
7255;SDS011;3669;49.200;9.242;2024-03-22T09:46:41;9.20;;;8.18;;
7255;SDS011;3669;49.200;9.242;2024-03-22T09:49:09;9.38;;;8.48;;
7255;SDS011;3669;49.200;9.242;2024-03-22T09:51:37;10.20;;;9.10;;
7255;SDS011;3669;49.200;9.242;2024-03-22T09:54:04;10.30;;;8.95;;
7255;SDS011;3669;49.200;9.242;2024-03-22T09:56:32;9.77;;;8.85;;
7255;SDS011;3669;49.200;9.242;2024-03-22T09:58:59;20.02;;;18.42;;
7255;SDS011;3669;49.200;9.242;2024-03-22T10:01:26;9.27;;;8.32;;
7255;SDS011;3669;49.200;9.242;2024-03-22T10:03:54;8.77;;;7.97;;
7255;SDS011;3669;49.200;9.242;2024-03-22T10:06:22;8.20;;;7.40;;
7255;SDS011;3669;49.200;9.242;2024-03-22T10:08:58;9.23;;;8.07;;
7255;SDS011;3669;49.200;9.242;2024-03-22T10:11:28;10.68;;;9.00;;
7255;SDS011;3669;49.200;9.242;2024-03-22T10:13:55;9.70;;;8.75;;
7255;SDS011;3669;49.200;9.242;2024-03-22T10:16:23;9.02;;;8.13;;
7255;SDS011;3669;49.200;9.242;2024-03-22T10:18:50;8.65;;;7.85;;
7255;SDS011;3669;49.200;9.242;2024-03-22T10:21:18;10.05;;;9.00;;
7255;SDS011;3669;49.200;9.242;2024-03-22T10:23:46;9.00;;;8.13;;
7255;SDS011;3669;49.200;9.242;2024-03-22T10:26:14;9.40;;;8.57;;
7255;SDS011;3669;49.200;9.242;2024-03-22T10:28:45;8.68;;;7.63;;
7255;SDS011;3669;49.200;9.242;2024-03-22T10:31:13;8.75;;;7.95;;
7255;SDS011;3669;49.200;9.242;2024-03-22T10:33:41;9.20;;;8.30;;
7255;SDS011;3669;49.200;9.242;2024-03-22T10:36:08;8.63;;;7.78;;
7255;SDS011;3669;49.200;9.242;2024-03-22T10:38:38;10.95;;;7.38;;
7255;SDS011;3669;49.200;9.242;2024-03-22T10:41:06;9.27;;;8.27;;
7255;SDS011;3669;49.200;9.242;2024-03-22T10:43:34;8.85;;;8.05;;
7255;SDS011;3669;49.200;9.242;2024-03-22T10:46:02;8.43;;;7.60;;
7255;SDS011;3669;49.200;9.242;2024-03-22T10:48:30;14.77;;;13.57;;
7255;SDS011;3669;49.200;9.242;2024-03-22T10:51:00;27.45;;;25.77;;
7255;SDS011;3669;49.200;9.242;2024-03-22T10:53:28;53.92;;;50.90;;
7255;SDS011;3669;49.200;9.242;2024-03-22T10:55:57;31.33;;;29.45;;
7255;SDS011;3669;49.200;9.242;2024-03-22T10:58:28;32.78;;;30.52;;
7255;SDS011;3669;49.200;9.242;2024-03-22T11:00:56;11.57;;;10.52;;
7255;SDS011;3669;49.200;9.242;2024-03-22T11:03:24;8.93;;;8.00;;
7255;SDS011;3669;49.200;9.242;2024-03-22T11:05:56;10.43;;;8.73;;
7255;SDS011;3669;49.200;9.242;2024-03-22T11:08:26;8.90;;;8.02;;
7255;SDS011;3669;49.200;9.242;2024-03-22T11:10:55;8.18;;;7.43;;
7255;SDS011;3669;49.200;9.242;2024-03-22T11:13:23;9.00;;;7.90;;
7255;SDS011;3669;49.200;9.242;2024-03-22T11:15:50;7.93;;;7.10;;
7255;SDS011;3669;49.200;9.242;2024-03-22T11:18:18;8.27;;;7.50;;
7255;SDS011;3669;49.200;9.242;2024-03-22T11:20:45;8.07;;;7.30;;
7255;SDS011;3669;49.200;9.242;2024-03-22T11:23:13;7.97;;;7.10;;
7255;SDS011;3669;49.200;9.242;2024-03-22T11:25:40;8.27;;;7.00;;
7255;SDS011;3669;49.200;9.242;2024-03-22T11:28:07;8.40;;;7.05;;
7255;SDS011;3669;49.200;9.242;2024-03-22T11:30:37;9.38;;;6.55;;
7255;SDS011;3669;49.200;9.242;2024-03-22T11:33:04;8.30;;;7.47;;
7255;SDS011;3669;49.200;9.242;2024-03-22T11:35:32;6.68;;;6.07;;
7255;SDS011;3669;49.200;9.242;2024-03-22T11:38:00;7.47;;;6.47;;
7255;SDS011;3669;49.200;9.242;2024-03-22T11:40:30;7.57;;;6.00;;
7255;SDS011;3669;49.200;9.242;2024-03-22T11:42:59;6.55;;;5.95;;
7255;SDS011;3669;49.200;9.242;2024-03-22T11:45:27;7.15;;;6.40;;
7255;SDS011;3669;49.200;9.242;2024-03-22T11:48:01;6.68;;;6.00;;
7255;SDS011;3669;49.200;9.242;2024-03-22T11:50:29;6.35;;;5.75;;
7255;SDS011;3669;49.200;9.242;2024-03-22T11:52:56;6.43;;;5.55;;
7255;SDS011;3669;49.200;9.242;2024-03-22T11:55:26;6.65;;;5.63;;
7255;SDS011;3669;49.200;9.242;2024-03-22T11:57:56;6.85;;;5.70;;
7255;SDS011;3669;49.200;9.242;2024-03-22T12:00:24;6.78;;;5.53;;
7255;SDS011;3669;49.200;9.242;2024-03-22T12:02:52;5.85;;;5.35;;
7255;SDS011;3669;49.200;9.242;2024-03-22T12:05:20;5.63;;;5.05;;
7255;SDS011;3669;49.200;9.242;2024-03-22T12:07:48;5.95;;;5.35;;
7255;SDS011;3669;49.200;9.242;2024-03-22T12:10:15;5.45;;;4.88;;
7255;SDS011;3669;49.200;9.242;2024-03-22T12:12:42;5.88;;;4.95;;
7255;SDS011;3669;49.200;9.242;2024-03-22T12:15:09;7.75;;;4.95;;
7255;SDS011;3669;49.200;9.242;2024-03-22T12:17:38;5.32;;;4.70;;
7255;SDS011;3669;49.200;9.242;2024-03-22T12:20:09;5.00;;;4.45;;
7255;SDS011;3669;49.200;9.242;2024-03-22T12:22:37;6.10;;;4.80;;
7255;SDS011;3669;49.200;9.242;2024-03-22T12:25:04;5.82;;;4.88;;
7255;SDS011;3669;49.200;9.242;2024-03-22T12:27:31;4.90;;;4.40;;
7255;SDS011;3669;49.200;9.242;2024-03-22T12:29:58;5.45;;;4.90;;
7255;SDS011;3669;49.200;9.242;2024-03-22T12:32:25;5.10;;;4.35;;
7255;SDS011;3669;49.200;9.242;2024-03-22T12:34:53;5.75;;;5.10;;
7255;SDS011;3669;49.200;9.242;2024-03-22T12:37:20;5.50;;;4.90;;
7255;SDS011;3669;49.200;9.242;2024-03-22T12:39:47;8.15;;;4.70;;
7255;SDS011;3669;49.200;9.242;2024-03-22T12:42:14;5.70;;;5.20;;
7255;SDS011;3669;49.200;9.242;2024-03-22T12:44:41;7.07;;;5.18;;
7255;SDS011;3669;49.200;9.242;2024-03-22T12:47:09;5.75;;;5.13;;
7255;SDS011;3669;49.200;9.242;2024-03-22T12:49:36;5.28;;;4.57;;
7255;SDS011;3669;49.200;9.242;2024-03-22T12:52:03;5.70;;;4.80;;
7255;SDS011;3669;49.200;9.242;2024-03-22T12:54:30;4.90;;;4.03;;
7255;SDS011;3669;49.200;9.242;2024-03-22T12:56:58;5.03;;;4.53;;
7255;SDS011;3669;49.200;9.242;2024-03-22T12:59:25;6.93;;;4.82;;
7255;SDS011;3669;49.200;9.242;2024-03-22T13:01:52;5.50;;;5.00;;
7255;SDS011;3669;49.200;9.242;2024-03-22T13:04:19;18.63;;;17.25;;
7255;SDS011;3669;49.200;9.242;2024-03-22T13:06:46;21.15;;;19.90;;
7255;SDS011;3669;49.200;9.242;2024-03-22T13:09:13;24.58;;;23.02;;
7255;SDS011;3669;49.200;9.242;2024-03-22T13:11:41;27.25;;;25.52;;
7255;SDS011;3669;49.200;9.242;2024-03-22T13:14:09;18.33;;;17.20;;
7255;SDS011;3669;49.200;9.242;2024-03-22T13:16:36;20.08;;;18.88;;
7255;SDS011;3669;49.200;9.242;2024-03-22T13:19:03;19.40;;;18.08;;
7255;SDS011;3669;49.200;9.242;2024-03-22T13:21:31;10.65;;;9.77;;
7255;SDS011;3669;49.200;9.242;2024-03-22T13:23:58;8.63;;;7.93;;
7255;SDS011;3669;49.200;9.242;2024-03-22T13:26:25;5.03;;;4.35;;
7255;SDS011;3669;49.200;9.242;2024-03-22T13:28:52;6.03;;;4.47;;
7255;SDS011;3669;49.200;9.242;2024-03-22T13:31:19;5.90;;;4.53;;
7255;SDS011;3669;49.200;9.242;2024-03-22T13:33:47;5.70;;;4.10;;
7255;SDS011;3669;49.200;9.242;2024-03-22T13:36:14;6.25;;;4.60;;
7255;SDS011;3669;49.200;9.242;2024-03-22T13:38:41;4.88;;;4.40;;
7255;SDS011;3669;49.200;9.242;2024-03-22T13:41:09;6.80;;;4.85;;
7255;SDS011;3669;49.200;9.242;2024-03-22T13:43:36;5.82;;;4.60;;
7255;SDS011;3669;49.200;9.242;2024-03-22T13:46:05;5.82;;;4.32;;
7255;SDS011;3669;49.200;9.242;2024-03-22T13:48:33;5.35;;;4.50;;
7255;SDS011;3669;49.200;9.242;2024-03-22T13:51:00;4.70;;;4.20;;
7255;SDS011;3669;49.200;9.242;2024-03-22T13:53:29;4.65;;;3.75;;
7255;SDS011;3669;49.200;9.242;2024-03-22T13:55:56;4.78;;;4.10;;
7255;SDS011;3669;49.200;9.242;2024-03-22T13:58:23;4.80;;;4.18;;
7255;SDS011;3669;49.200;9.242;2024-03-22T14:00:50;4.90;;;3.97;;
7255;SDS011;3669;49.200;9.242;2024-03-22T14:03:18;4.20;;;3.80;;
7255;SDS011;3669;49.200;9.242;2024-03-22T14:05:45;4.35;;;3.95;;
7255;SDS011;3669;49.200;9.242;2024-03-22T14:08:13;4.95;;;4.45;;
7255;SDS011;3669;49.200;9.242;2024-03-22T14:10:40;3.78;;;3.47;;
7255;SDS011;3669;49.200;9.242;2024-03-22T14:13:08;4.15;;;3.60;;
7255;SDS011;3669;49.200;9.242;2024-03-22T14:15:35;4.40;;;3.50;;
7255;SDS011;3669;49.200;9.242;2024-03-22T14:18:03;5.30;;;3.78;;
7255;SDS011;3669;49.200;9.242;2024-03-22T14:20:30;3.55;;;3.25;;
7255;SDS011;3669;49.200;9.242;2024-03-22T14:22:57;4.65;;;3.85;;
7255;SDS011;3669;49.200;9.242;2024-03-22T14:25:24;5.63;;;3.92;;
7255;SDS011;3669;49.200;9.242;2024-03-22T14:27:53;5.03;;;3.33;;
7255;SDS011;3669;49.200;9.242;2024-03-22T14:30:20;3.85;;;3.50;;
7255;SDS011;3669;49.200;9.242;2024-03-22T14:32:50;3.72;;;3.35;;
7255;SDS011;3669;49.200;9.242;2024-03-22T14:35:18;3.97;;;3.58;;
7255;SDS011;3669;49.200;9.242;2024-03-22T14:37:48;5.63;;;3.35;;
7255;SDS011;3669;49.200;9.242;2024-03-22T14:40:15;4.25;;;3.83;;
7255;SDS011;3669;49.200;9.242;2024-03-22T14:42:43;4.07;;;3.20;;
7255;SDS011;3669;49.200;9.242;2024-03-22T14:45:10;5.07;;;3.50;;
7255;SDS011;3669;49.200;9.242;2024-03-22T14:47:38;3.35;;;3.05;;
7255;SDS011;3669;49.200;9.242;2024-03-22T14:50:05;4.20;;;3.70;;
7255;SDS011;3669;49.200;9.242;2024-03-22T14:52:33;4.05;;;3.20;;
7255;SDS011;3669;49.200;9.242;2024-03-22T14:55:00;3.95;;;3.47;;
7255;SDS011;3669;49.200;9.242;2024-03-22T14:57:27;3.53;;;3.22;;
7255;SDS011;3669;49.200;9.242;2024-03-22T14:59:55;3.28;;;2.97;;
7255;SDS011;3669;49.200;9.242;2024-03-22T15:02:24;4.00;;;3.60;;
7255;SDS011;3669;49.200;9.242;2024-03-22T15:04:51;3.65;;;3.22;;
7255;SDS011;3669;49.200;9.242;2024-03-22T15:07:19;4.30;;;3.50;;
7255;SDS011;3669;49.200;9.242;2024-03-22T15:09:47;3.53;;;3.22;;
7255;SDS011;3669;49.200;9.242;2024-03-22T15:12:16;4.05;;;3.50;;
7255;SDS011;3669;49.200;9.242;2024-03-22T15:14:43;3.40;;;3.10;;